createdAt,value
2023-05-05T00:03:06.328Z,14
2023-05-05T00:08:22.674Z,13
2023-05-05T00:13:39.015Z,14
2023-05-05T00:18:55.400Z,12
2023-05-05T00:24:12.510Z,12
2023-05-05T00:29:28.896Z,14
2023-05-05T00:34:45.260Z,13
2023-05-05T00:40:01.657Z,12
2023-05-05T00:45:18.025Z,11
2023-05-05T00:50:34.398Z,12
2023-05-05T00:55:50.761Z,13
2023-05-05T01:01:06.864Z,15
2023-05-05T01:06:23.252Z,15
2023-05-05T01:11:39.623Z,14
2023-05-05T01:16:55.995Z,12
2023-05-05T01:22:12.365Z,12
2023-05-05T01:27:28.761Z,11
2023-05-05T01:32:45.117Z,12
2023-05-05T01:38:01.508Z,13
2023-05-05T01:43:17.845Z,12
2023-05-05T01:48:34.945Z,10
2023-05-05T01:53:51.288Z,11
2023-05-05T01:59:07.671Z,10
2023-05-05T02:04:24.021Z,12
2023-05-05T02:09:40.415Z,12
2023-05-05T02:14:56.784Z,11
2023-05-05T02:20:13.185Z,14
2023-05-05T02:25:29.534Z,14
2023-05-05T02:30:45.918Z,12
2023-05-05T02:36:02.294Z,11
2023-05-05T02:41:18.664Z,11
2023-05-05T02:46:35.115Z,14
2023-05-05T02:51:51.434Z,12
2023-05-05T02:57:07.797Z,12
2023-05-05T03:02:24.264Z,13
2023-05-05T03:07:40.540Z,12
2023-05-05T03:12:56.933Z,14
2023-05-05T03:18:13.285Z,13
2023-05-05T16:07:48.253Z,15
2023-05-05T16:21:57.941Z,12
2023-05-05T16:27:14.269Z,11
2023-05-05T16:32:30.611Z,11
2023-05-05T16:37:46.962Z,13
2023-05-05T16:43:03.309Z,12
2023-05-05T16:48:19.678Z,10
2023-05-05T16:53:36.012Z,10
2023-05-05T16:58:52.375Z,10
2023-05-05T17:04:08.730Z,9
2023-05-05T17:09:36.900Z,9
2023-05-05T17:14:53.237Z,9
2023-05-05T17:20:09.605Z,9
2023-05-05T17:25:25.948Z,10
2023-05-05T17:30:42.331Z,7
2023-05-05T17:35:58.696Z,7
2023-05-05T17:41:15.032Z,9
2023-05-05T17:46:31.375Z,8
2023-05-05T17:51:47.725Z,11
2023-05-05T17:57:04.161Z,10
2023-05-05T18:02:20.527Z,13
2023-05-05T18:07:36.817Z,10
2023-05-05T18:12:53.161Z,12
2023-05-05T18:18:09.557Z,15
2023-05-05T18:23:25.899Z,16
2023-05-05T18:28:42.274Z,16
2023-05-05T18:33:58.624Z,19
2023-05-05T18:39:15.002Z,13
2023-05-05T18:44:31.330Z,14
2023-05-05T18:49:47.700Z,14
2023-05-05T18:55:04.057Z,19
2023-05-05T19:00:20.693Z,18
2023-05-05T19:05:36.792Z,13
2023-05-05T19:10:53.171Z,11
2023-05-05T19:16:09.557Z,14
2023-05-05T19:21:25.893Z,12
2023-05-05T19:26:42.250Z,12
2023-05-05T19:31:58.616Z,12
2023-05-05T19:37:14.984Z,14
2023-05-05T19:42:31.329Z,12
2023-05-05T19:47:47.724Z,15
2023-05-05T19:53:04.073Z,13
2023-05-05T19:58:20.423Z,12
2023-05-05T20:03:36.924Z,14
2023-05-05T20:08:53.170Z,15
2023-05-05T20:14:09.511Z,14
2023-05-05T20:19:25.891Z,15
2023-05-05T20:24:42.247Z,16
2023-05-05T20:29:58.629Z,15
2023-05-05T20:35:14.972Z,13
2023-05-05T20:40:31.368Z,11
2023-05-05T20:45:47.729Z,12
2023-05-05T20:51:04.084Z,12
2023-05-05T20:56:20.452Z,14
2023-05-05T21:01:37.029Z,13
2023-05-05T21:06:53.187Z,15
2023-05-05T21:12:09.561Z,14
2023-05-05T21:17:25.995Z,15
2023-05-05T21:22:42.297Z,12
2023-05-05T21:27:58.678Z,13
2023-05-05T21:33:15.084Z,16
2023-05-05T21:38:31.431Z,16
2023-05-05T21:43:47.810Z,16
2023-05-05T21:49:03.918Z,14
2023-05-05T21:54:20.287Z,16
2023-05-05T21:59:44.734Z,15
2023-05-05T22:05:09.476Z,14
2023-05-05T22:10:25.868Z,16
2023-05-05T22:15:46.619Z,16
2023-05-05T22:20:58.568Z,14
2023-05-05T22:26:14.945Z,15
2023-05-05T22:31:31.337Z,14
2023-05-05T22:36:47.686Z,16
2023-05-05T22:42:03.819Z,17
2023-05-05T22:47:19.904Z,16
2023-05-05T22:52:36.318Z,14
2023-05-05T22:57:52.783Z,16
2023-05-05T23:03:09.030Z,16
2023-05-05T23:08:25.416Z,18
2023-05-05T23:13:41.785Z,18
2023-05-05T23:18:58.172Z,13
2023-05-05T23:24:14.534Z,16
2023-05-05T23:29:30.917Z,17
2023-05-05T23:34:47.280Z,14
2023-05-05T23:40:03.664Z,13
2023-05-05T23:45:20.028Z,16
2023-05-05T23:50:36.400Z,15
2023-05-05T23:55:52.771Z,17
